Terminal Aerodrome Forecast
Issued by NWS

Home | Current Version | Previous Version | Text Only | Print | Product List | Glossary On
Versions: 1 2 3 4 5 6 7 8 9 10 11 12 13 14 15 16 17 18 19 20 21
000
FTUS44 KBMX 251700
TAFTOI
TAF
KTOI 251738Z 2518/2618 20004KT P6SM VCTS SCT040CB
     FM260100 VRB03KT P6SM SCT035
     FM260700 00000KT 6SM BR SKC
     FM261400 27003KT P6SM FEW250=

USA.gov is the U.S. government's official web portal to all federal, state and local government web resources and services.